Time;durP1;ratioP1;P1;durP2;ratioP2;P2;SDS_P1;SDS_P2;PMS_P1;PMS_P2;Temp;Humidity;BMP_temperature;BMP_pressure;BME280_temperature;BME280_humidity;BME280_pressure;Samples;Min_cycle;Max_cycle;Signal;HPM_P1;HPM_P2
2023/01/12 00:01:51;;;;;;;5.70;1.02;;;;;;;8.41;84.00;98536.66;4982003;28;20133;-57
2023/01/12 00:04:18;;;;;;;2.90;0.65;;;;;;;8.38;84.46;98526.41;4983277;28;20050;-58
2023/01/12 00:06:46;;;;;;;1.98;0.47;;;;;;;8.40;84.45;98534.97;4981620;28;20054;-58
2023/01/12 00:09:13;;;;;;;4.32;0.93;;;;;;;8.41;84.09;98530.66;4980457;28;20050;-58
2023/01/12 00:11:40;;;;;;;6.28;1.50;;;;;;;8.46;84.16;98524.53;4978802;28;20046;-57
2023/01/12 00:14:08;;;;;;;4.82;1.35;;;;;;;8.43;84.48;98514.25;4978762;28;20089;-58
2023/01/12 00:19:17;;;;;;;5.10;2.20;;;;;;;8.51;84.17;98516.69;5039237;27;20402;-58
2023/01/12 00:22:08;;;;;;;8.15;1.95;;;;;;;8.51;83.85;98505.53;5002418;28;20046;-58
2023/01/12 00:24:38;;;;;;;3.88;1.33;;;;;;;8.46;84.81;98509.06;4999464;28;20049;-58
2023/01/12 00:27:06;;;;;;;;;;;;;;;8.44;84.47;98505.63;5000079;28;20050;-58
2023/01/12 00:29:33;;;;;;;4.00;1.92;;;;;;;8.51;84.80;98490.06;4991749;28;19925;-59
2023/01/12 00:32:01;;;;;;;3.58;2.13;;;;;;;8.56;84.17;98483.09;4995736;28;20133;-58
2023/01/12 00:34:28;;;;;;;5.60;1.27;;;;;;;8.58;84.23;98471.03;4987418;28;20426;-59
2023/01/12 00:36:56;;;;;;;3.85;2.33;;;;;;;8.59;84.46;98464.97;4997534;28;20219;-59
2023/01/12 00:39:23;;;;;;;3.30;2.30;;;;;;;8.61;84.54;98460.63;4995946;28;20088;-58
2023/01/12 00:47:24;;;;;;;2.75;0.75;;;;;;;8.60;85.14;98427.94;5021547;28;20083;-58
2023/01/12 00:49:51;;;;;;;3.13;1.50;;;;;;;8.67;84.39;98437.28;5014182;28;20174;-58
2023/01/12 00:52:20;;;;;;;0.52;0.10;;;;;;;8.68;85.07;98431.22;5019918;28;20046;-59
2023/01/12 00:55:02;;;;;;;1.65;0.35;;;;;;;8.73;85.08;98428.53;5014369;28;20829;-59
2023/01/12 00:57:29;;;;;;;2.65;0.30;;;;;;;8.75;84.99;98431.97;5009357;28;20099;-58
2023/01/12 00:59:58;;;;;;;2.83;0.30;;;;;;;8.80;85.07;98418.94;5021626;28;20053;-59
2023/01/12 01:02:26;;;;;;;1.88;0.77;;;;;;;8.81;85.32;98405.16;5015341;28;20555;-58
2023/01/12 01:04:53;;;;;;;4.05;1.88;;;;;;;8.87;85.35;98410.19;5013708;28;20477;-58
2023/01/12 01:07:20;;;;;;;0.60;0.30;;;;;;;8.88;85.54;98411.88;5011673;28;20042;-58
2023/01/12 01:09:49;;;;;;;4.50;1.30;;;;;;;8.94;85.15;98401.41;5019901;28;20049;-58
2023/01/12 01:12:16;;;;;;;1.38;0.25;;;;;;;8.99;85.07;98399.56;5015591;28;20137;-58
2023/01/12 01:14:43;;;;;;;4.03;0.22;;;;;;;9.04;84.89;98406.34;5013429;28;20058;-59
2023/01/12 01:17:10;;;;;;;0.70;0.20;;;;;;;9.05;85.17;98408.91;5012389;28;20103;-58
2023/01/12 01:19:37;;;;;;;2.53;0.30;;;;;;;9.06;85.31;98399.44;5013508;28;20100;-59
2023/01/12 01:22:03;;;;;;;1.50;0.40;;;;;;;9.09;85.70;98394.19;5012048;28;20046;-59
2023/01/12 01:24:30;;;;;;;5.13;0.50;;;;;;;9.18;86.21;98398.31;5011483;28;20069;-58
2023/01/12 01:26:57;;;;;;;2.28;2.17;;;;;;;9.17;85.93;98387.13;5017175;28;20077;-59
2023/01/12 01:29:24;;;;;;;2.70;0.20;;;;;;;9.25;86.04;98398.13;5017037;28;20210;-59
2023/01/12 01:31:54;;;;;;;3.30;0.20;;;;;;;9.32;85.69;98393.63;5003748;28;20080;-59
2023/01/12 01:34:22;;;;;;;0.73;0.13;;;;;;;9.34;86.14;98388.44;4999465;28;20051;-59
2023/01/12 01:36:49;;;;;;;4.35;0.30;;;;;;;9.38;85.91;98387.47;4999894;28;20828;-59
2023/01/12 01:39:16;;;;;;;1.20;0.20;;;;;;;9.42;85.98;98402.00;4996726;28;20128;-59
2023/01/12 01:41:43;;;;;;;1.23;1.17;;;;;;;9.46;86.37;98382.97;5010040;28;20456;-60
2023/01/12 01:47:22;;;;;;;3.20;0.35;;;;;;;9.57;85.60;98374.09;5117940;27;20396;-59
2023/01/12 01:49:52;;;;;;;2.85;0.20;;;;;;;9.57;85.99;98364.63;5074568;28;20496;-59
2023/01/12 01:52:24;;;;;;;4.00;0.47;;;;;;;9.62;85.58;98374.81;5070370;28;20044;-59
2023/01/12 01:54:57;;;;;;;1.80;1.00;;;;;;;9.63;85.63;98373.94;5073946;28;20106;-59
2023/01/12 01:57:28;;;;;;;3.70;0.73;;;;;;;9.67;85.78;98385.91;5073129;28;20496;-59
2023/01/12 01:59:57;;;;;;;0.80;0.65;;;;;;;9.69;85.97;98375.53;5076563;28;20638;-59
2023/01/12 02:02:25;;;;;;;2.95;0.68;;;;;;;9.72;85.79;98362.50;5074692;28;20085;-59
2023/01/12 02:04:54;;;;;;;1.38;0.82;;;;;;;9.72;86.15;98384.03;5077857;28;20075;-59
2023/01/12 02:07:22;;;;;;;1.55;0.35;;;;;;;9.74;85.96;98364.19;5070766;28;20041;-60
2023/01/12 02:09:49;;;;;;;3.00;0.32;;;;;;;9.77;86.45;98371.84;5079012;28;20127;-59
2023/01/12 02:34:56;;;;;;;3.05;1.13;;;;;;;9.89;85.83;98368.09;5036837;27;20990;-59
2023/01/12 02:37:33;;;;;;;2.55;1.80;;;;;;;9.95;86.49;98380.00;5005150;28;20088;-59
2023/01/12 02:40:18;;;;;;;2.83;1.20;;;;;;;9.98;85.96;98356.66;5010724;28;20163;-59
2023/01/12 02:42:58;;;;;;;1.27;1.17;;;;;;;10.01;86.04;98364.31;5016647;28;20049;-59
2023/01/12 02:48:21;;;;;;;3.03;2.38;;;;;;;9.99;85.99;98360.91;5096874;27;20397;-59
2023/01/12 02:51:12;;;;;;;1.95;0.45;;;;;;;10.01;85.50;98377.25;5078146;28;20048;-59
2023/01/12 02:56:27;;;;;;;0.88;0.20;;;;;;;10.02;86.61;98376.34;5028528;27;20414;-59
2023/01/12 02:58:59;;;;;;;2.33;0.32;;;;;;;10.05;86.39;98370.25;5020643;28;20046;-59
2023/01/12 03:01:32;;;;;;;2.47;1.17;;;;;;;10.11;86.20;98377.00;5033601;28;20047;-60
2023/01/12 03:04:03;;;;;;;1.02;0.90;;;;;;;10.13;85.57;98382.94;5032113;28;20076;-59
2023/01/12 03:06:40;;;;;;;0.57;0.57;;;;;;;10.12;86.35;98376.09;5025693;28;20049;-58
2023/01/12 03:09:08;;;;;;;1.58;1.42;;;;;;;10.11;85.98;98364.06;5038319;28;20060;-59
2023/01/12 03:11:39;;;;;;;1.33;0.13;;;;;;;10.14;85.90;98379.50;5039051;28;20057;-59
2023/01/12 03:14:08;;;;;;;1.70;0.38;;;;;;;10.16;85.77;98367.34;5035928;28;20053;-59
2023/01/12 03:16:37;;;;;;;1.15;0.22;;;;;;;10.15;86.28;98365.66;5037464;28;20536;-58
2023/01/12 03:21:52;;;;;;;1.92;1.52;;;;;;;10.21;86.31;98377.56;5105010;27;20403;-59
2023/01/12 03:24:27;;;;;;;1.88;1.77;;;;;;;10.22;85.85;98377.53;5052650;28;20102;-59
2023/01/12 03:27:00;;;;;;;1.35;1.25;;;;;;;10.22;85.86;98367.19;5059468;28;20055;-60
2023/01/12 03:29:34;;;;;;;1.80;1.70;;;;;;;10.23;86.16;98384.41;5058042;28;20061;-59
2023/01/12 03:32:01;;;;;;;1.70;1.55;;;;;;;10.28;86.52;98392.03;5055256;28;20047;-59
2023/01/12 03:34:28;;;;;;;1.55;1.45;;;;;;;10.28;85.69;98397.22;5059576;28;20045;-60
2023/01/12 03:37:05;;;;;;;1.80;1.67;;;;;;;10.32;86.15;98398.81;5053235;28;20396;-59
2023/01/12 03:42:48;;;;;;;0.40;0.40;;;;;;;10.31;85.21;98393.69;5047458;27;20413;-59
2023/01/12 03:45:39;;;;;;;0.10;0.10;;;;;;;10.28;86.09;98382.56;5008130;28;20053;-59
2023/01/12 03:50:48;;;;;;;1.13;0.98;;;;;;;10.36;86.13;98384.03;5056511;28;20403;-59
2023/01/12 03:53:21;;;;;;;0.82;0.57;;;;;;;10.34;85.86;98397.03;5020124;28;20065;-59
2023/01/12 03:55:52;;;;;;;0.80;0.63;;;;;;;10.36;86.27;98390.09;5015587;28;20046;-59
2023/01/12 03:58:19;;;;;;;1.45;0.63;;;;;;;10.39;85.79;98383.97;5012139;28;20065;-59
2023/01/12 04:00:46;;;;;;;0.82;0.30;;;;;;;10.37;85.95;98396.94;5009553;28;20132;-59
2023/01/12 04:03:15;;;;;;;0.47;0.47;;;;;;;10.37;86.17;98390.94;5012390;28;20049;-58
2023/01/12 04:05:44;;;;;;;0.40;0.35;;;;;;;10.40;84.85;98390.81;5019315;28;20557;-60
2023/01/12 04:08:14;;;;;;;0.35;0.35;;;;;;;10.39;85.07;98402.94;5012535;28;20041;-57
2023/01/12 04:10:41;;;;;;;0.68;0.68;;;;;;;10.39;85.55;98394.31;5014070;28;20062;-60
2023/01/12 04:13:08;;;;;;;0.25;0.25;;;;;;;10.36;86.34;98399.56;5012532;28;20042;-59
2023/01/12 04:15:37;;;;;;;0.65;0.20;;;;;;;10.44;85.50;98402.81;5012962;28;20695;-58
2023/01/12 04:18:04;;;;;;;0.75;0.25;;;;;;;10.43;85.09;98411.44;5006220;28;20081;-59
2023/01/12 04:20:31;;;;;;;0.85;0.65;;;;;;;10.45;85.59;98406.28;5012862;28;20100;-58
2023/01/12 04:22:58;;;;;;;0.63;0.63;;;;;;;10.46;85.36;98398.47;5012142;28;20048;-59
2023/01/12 04:25:25;;;;;;;0.40;0.40;;;;;;;10.45;84.96;98409.72;5010727;28;20058;-58
2023/01/12 04:27:56;;;;;;;0.28;0.25;;;;;;;10.48;85.29;98409.63;5013060;28;20053;-59
2023/01/12 04:30:26;;;;;;;0.25;0.25;;;;;;;10.46;85.58;98426.06;5014458;28;20058;-59
2023/01/12 04:32:54;;;;;;;0.38;0.38;;;;;;;10.47;85.72;98412.25;5012020;28;20057;-58
2023/01/12 04:35:22;;;;;;;0.65;0.65;;;;;;;10.42;85.00;98409.75;5015891;28;20048;-59
2023/01/12 04:37:50;;;;;;;0.55;0.55;;;;;;;10.42;86.14;98409.75;5006219;28;20058;-59
2023/01/12 04:40:18;;;;;;;0.47;0.40;;;;;;;10.48;85.04;98412.22;5011533;28;20654;-59
2023/01/12 04:43:10;;;;;;;0.88;0.65;;;;;;;10.45;84.71;98425.25;5004512;28;20568;-60
2023/01/12 04:45:40;;;;;;;0.85;0.85;;;;;;;10.47;84.34;98431.22;5008578;28;20505;-59
2023/01/12 04:48:10;;;;;;;0.75;0.05;;;;;;;10.45;84.98;98424.38;5011959;28;20069;-60
2023/01/12 04:50:38;;;;;;;1.08;0.30;;;;;;;10.44;84.61;98428.69;5014991;28;20042;-59
2023/01/12 04:53:08;;;;;;;0.93;0.70;;;;;;;10.43;84.60;98432.16;5009799;28;20721;-59
2023/01/12 04:55:36;;;;;;;2.28;0.45;;;;;;;10.40;84.18;98433.09;5007491;28;20058;-60
2023/01/12 04:58:03;;;;;;;0.40;0.30;;;;;;;10.35;84.37;98429.81;5010569;28;20413;-59
2023/01/12 05:00:30;;;;;;;0.68;0.68;;;;;;;10.37;84.25;98448.72;5008416;28;20057;-60
2023/01/12 05:02:59;;;;;;;0.35;0.35;;;;;;;10.36;84.84;98446.16;4999960;28;20116;-60
2023/01/12 05:05:28;;;;;;;0.70;0.65;;;;;;;10.34;84.39;98443.59;4997515;28;20162;-59
2023/01/12 05:10:49;;;;;;;0.65;0.28;;;;;;;10.33;84.24;98451.44;4994318;28;20070;-60
2023/01/12 05:13:16;;;;;;;0.20;0.10;;;;;;;10.33;84.61;98459.22;4999026;28;20636;-59
2023/01/12 05:15:42;;;;;;;0.60;0.08;;;;;;;10.32;83.64;98460.94;4995981;28;20563;-60
2023/01/12 05:18:09;;;;;;;0.63;0.63;;;;;;;10.31;83.59;98468.75;5004320;28;20099;-60
2023/01/12 05:20:36;;;;;;;0.63;0.63;;;;;;;10.32;83.88;98471.28;4996029;28;20096;-59
2023/01/12 05:23:02;;;;;;;0.80;0.80;;;;;;;10.33;84.02;98461.78;4999674;28;20462;-59
2023/01/12 05:25:31;;;;;;;0.47;0.22;;;;;;;10.33;83.80;98459.22;4994926;28;20065;-59
2023/01/12 05:27:58;;;;;;;2.80;0.43;;;;;;;10.34;84.65;98485.00;4999000;28;20037;-59
2023/01/12 05:30:27;;;;;;;0.75;0.75;;;;;;;10.32;84.02;98467.84;4996432;28;20061;-59
2023/01/12 05:32:57;;;;;;;0.90;0.25;;;;;;;10.31;83.66;98474.78;4998073;28;20489;-59
2023/01/12 05:35:23;;;;;;;0.75;0.35;;;;;;;10.32;83.92;98497.16;4997145;28;20453;-59
2023/01/12 05:37:50;;;;;;;0.55;0.38;;;;;;;10.31;84.01;98503.25;5000909;28;20053;-59
2023/01/12 05:40:17;;;;;;;1.77;0.30;;;;;;;10.28;84.25;98514.53;4994030;28;20081;-59
2023/01/12 05:45:30;;;;;;;1.48;0.20;;;;;;;10.27;83.72;98520.56;4995276;28;20061;-59
2023/01/12 05:48:00;;;;;;;1.33;0.47;;;;;;;10.27;83.56;98523.16;4999576;28;20058;-59
2023/01/12 05:50:27;;;;;;;0.45;0.30;;;;;;;10.24;84.15;98525.81;4978496;28;20398;-59
2023/01/12 05:52:55;;;;;;;0.52;0.22;;;;;;;10.27;83.45;98530.91;4993531;28;20137;-59
2023/01/12 05:55:21;;;;;;;0.77;0.52;;;;;;;10.27;83.18;98530.09;4997609;28;20054;-60
2023/01/12 05:57:48;;;;;;;0.60;0.10;;;;;;;10.29;83.85;98528.28;4998462;28;20590;-60
2023/01/12 06:00:16;;;;;;;0.43;0.28;;;;;;;10.30;83.70;98535.16;4998230;28;20046;-59
2023/01/12 06:02:42;;;;;;;0.30;0.20;;;;;;;10.32;83.24;98533.41;5000414;28;20382;-59
2023/01/12 06:05:10;;;;;;;0.45;0.45;;;;;;;10.31;83.40;98533.44;4997623;28;20482;-60
2023/01/12 06:07:36;;;;;;;1.00;1.00;;;;;;;10.32;83.06;98543.75;4996725;28;20042;-59
2023/01/12 06:10:04;;;;;;;0.50;0.45;;;;;;;10.32;83.01;98543.75;5002049;28;20563;-60
2023/01/12 06:15:17;;;;;;;0.22;0.20;;;;;;;10.27;83.58;98546.44;4997433;28;20444;-60
2023/01/12 06:17:45;;;;;;;1.17;0.22;;;;;;;10.26;83.56;98549.94;4995276;28;20445;-59
2023/01/12 06:20:15;;;;;;;1.38;0.40;;;;;;;10.27;83.46;98556.78;5000726;28;20065;-60
2023/01/12 06:22:43;;;;;;;0.30;0.30;;;;;;;10.27;83.69;98551.63;5000028;28;20437;-59
2023/01/12 06:25:10;;;;;;;0.22;0.22;;;;;;;10.28;83.11;98563.69;4998590;28;20564;-60
2023/01/12 06:27:37;;;;;;;0.47;0.47;;;;;;;10.32;83.57;98561.00;4998875;28;20615;-59
2023/01/12 06:30:05;;;;;;;0.55;0.32;;;;;;;10.33;83.85;98565.31;4997318;28;20038;-60
2023/01/12 06:32:32;;;;;;;0.93;0.77;;;;;;;10.35;83.51;98563.50;4995701;28;20089;-59
2023/01/12 06:35:00;;;;;;;0.80;0.30;;;;;;;10.36;83.33;98570.38;4997911;28;20128;-59
2023/01/12 06:37:39;;;;;;;0.68;0.68;;;;;;;10.37;84.01;98579.88;4992100;28;20068;-59
2023/01/12 06:40:07;;;;;;;2.97;0.70;;;;;;;10.37;83.21;98583.28;4996547;28;20061;-59
2023/01/12 06:42:39;;;;;;;0.52;0.45;;;;;;;10.39;83.03;98572.91;4997317;28;20116;-59
2023/01/12 06:45:06;;;;;;;0.52;0.47;;;;;;;10.39;82.89;98585.84;4998977;28;20112;-59
2023/01/12 06:47:33;;;;;;;0.90;0.40;;;;;;;10.41;83.11;98581.50;4999026;28;20108;-59
2023/01/12 06:50:00;;;;;;;3.15;0.82;;;;;;;10.41;83.99;98584.06;4991987;28;20034;-59
2023/01/12 06:52:28;;;;;;;1.27;0.60;;;;;;;10.41;83.85;98584.06;4994887;28;20449;-59
2023/01/12 06:54:55;;;;;;;0.43;0.28;;;;;;;10.41;83.02;98589.25;4996576;28;20076;-59
2023/01/12 06:57:22;;;;;;;0.45;0.43;;;;;;;10.45;83.46;98585.72;4993344;28;20078;-59
2023/01/12 06:59:49;;;;;;;0.47;0.47;;;;;;;10.45;83.44;98590.91;4997068;28;20042;-59
2023/01/12 07:02:16;;;;;;;0.57;0.32;;;;;;;10.47;83.26;98586.53;4996533;28;20543;-60
2023/01/12 07:04:42;;;;;;;1.25;0.50;;;;;;;10.52;83.72;98586.41;4990372;28;20166;-59
2023/01/12 07:07:09;;;;;;;0.60;0.40;;;;;;;10.52;82.77;98586.41;4995993;28;20724;-59
2023/01/12 07:09:36;;;;;;;1.02;0.22;;;;;;;10.53;83.68;98588.09;4992251;28;20050;-60
2023/01/12 07:12:04;;;;;;;1.40;0.73;;;;;;;10.52;82.83;98592.44;4994927;28;20065;-59
2023/01/12 07:14:30;;;;;;;0.82;0.52;;;;;;;10.52;83.21;98597.63;4998158;28;20053;-60
2023/01/12 07:16:57;;;;;;;1.02;0.47;;;;;;;10.54;83.28;98590.66;4991890;28;20680;-59
2023/01/12 07:19:24;;;;;;;1.60;0.70;;;;;;;10.54;83.24;98590.66;4993270;28;20077;-60
2023/01/12 07:21:51;;;;;;;1.05;0.85;;;;;;;10.53;83.26;98588.97;4992748;28;20544;-60
2023/01/12 07:24:17;;;;;;;0.55;0.40;;;;;;;10.54;82.98;98589.81;4991631;28;20425;-60
2023/01/12 07:26:48;;;;;;;0.90;0.85;;;;;;;10.54;83.46;98580.28;4993323;28;20054;-60
2023/01/12 07:29:16;;;;;;;0.50;0.32;;;;;;;10.56;83.22;98582.00;4995675;28;20143;-59
2023/01/12 07:31:44;;;;;;;0.50;0.30;;;;;;;10.51;83.67;98580.38;4992708;28;20053;-59
2023/01/12 07:34:11;;;;;;;0.85;0.77;;;;;;;10.57;83.36;98575.94;5001841;28;20041;-59
2023/01/12 07:36:38;;;;;;;1.15;0.40;;;;;;;10.57;83.39;98575.94;4993685;28;20119;-59
2023/01/12 07:39:05;;;;;;;0.73;0.68;;;;;;;10.57;84.07;98573.34;4994617;28;20046;-60
2023/01/12 07:44:18;;;;;;;0.80;0.65;;;;;;;10.58;83.64;98580.22;4995164;28;20049;-59
2023/01/12 07:46:44;;;;;;;0.73;0.73;;;;;;;10.57;83.15;98573.34;4999869;28;20046;-60
2023/01/12 07:49:11;;;;;;;2.10;0.65;;;;;;;10.59;83.49;98581.91;4998939;28;20053;-59
2023/01/12 07:51:38;;;;;;;0.77;0.47;;;;;;;10.60;83.92;98570.69;4998229;28;20386;-59
2023/01/12 07:54:05;;;;;;;3.42;0.70;;;;;;;10.59;83.24;98576.75;4997097;28;20143;-59
2023/01/12 07:56:32;;;;;;;1.00;0.85;;;;;;;10.63;83.95;98583.53;4999508;28;20061;-59
2023/01/12 07:58:59;;;;;;;1.30;0.68;;;;;;;10.60;83.34;98594.81;4995594;28;20108;-59
2023/01/12 08:01:25;;;;;;;1.17;0.52;;;;;;;10.62;83.51;98576.66;4993729;28;20078;-60
2023/01/12 08:03:53;;;;;;;1.00;0.73;;;;;;;10.60;84.33;98588.81;5001440;28;20050;-59
2023/01/12 08:06:20;;;;;;;2.55;0.40;;;;;;;10.63;83.63;98583.53;5000006;28;20881;-60
2023/01/12 08:08:47;;;;;;;1.75;1.23;;;;;;;10.63;83.91;98578.34;4999547;28;20046;-60
2023/01/12 08:11:14;;;;;;;1.50;0.95;;;;;;;10.60;84.31;98591.41;4999592;28;20088;-60
2023/01/12 08:13:40;;;;;;;1.70;0.63;;;;;;;10.63;83.81;98575.75;4997892;28;20596;-58
2023/01/12 08:16:15;;;;;;;1.02;0.65;;;;;;;10.64;84.43;98580.06;4986918;28;20453;-60
2023/01/12 08:18:55;;;;;;;4.82;1.55;;;;;;;10.65;83.71;98579.19;4985142;28;20052;-59
2023/01/12 08:21:26;;;;;;;3.78;1.42;;;;;;;10.64;84.02;98575.72;5000749;28;20573;-59
2023/01/12 08:23:57;;;;;;;1.55;0.88;;;;;;;10.63;83.69;98584.38;4995796;28;20057;-60
2023/01/12 08:26:34;;;;;;;5.70;2.45;;;;;;;10.68;84.51;98592.03;4995389;28;20121;-59
2023/01/12 08:29:09;;;;;;;2.28;1.27;;;;;;;10.67;83.82;98590.31;4989388;28;20616;-59
2023/01/12 08:31:39;;;;;;;2.80;0.82;;;;;;;10.68;84.46;98599.81;4994896;28;20046;-59
2023/01/12 08:34:07;;;;;;;3.33;1.65;;;;;;;10.69;83.70;98601.50;4987282;28;20156;-59
2023/01/12 08:36:35;;;;;;;2.95;1.17;;;;;;;10.69;84.68;98601.50;4994710;28;20058;-59
2023/01/12 08:39:03;;;;;;;3.28;1.02;;;;;;;10.71;83.45;98597.13;5001943;28;20057;-58
2023/01/12 08:41:31;;;;;;;2.70;0.75;;;;;;;10.69;84.57;98609.28;4994754;28;20074;-59
2023/01/12 08:44:00;;;;;;;2.75;1.48;;;;;;;10.74;84.09;98602.22;4998420;28;20466;-59
2023/01/12 08:46:32;;;;;;;2.88;1.25;;;;;;;10.74;83.68;98602.22;4996636;28;20054;-59
2023/01/12 08:49:00;;;;;;;4.32;0.90;;;;;;;10.76;84.10;98599.59;4998695;28;20046;-59
2023/01/12 08:51:27;;;;;;;2.72;1.90;;;;;;;10.73;84.94;98608.31;4998601;28;20045;-59
2023/01/12 08:53:54;;;;;;;3.22;2.10;;;;;;;10.77;83.88;98602.16;5004201;28;20078;-59
2023/01/12 08:56:21;;;;;;;3.50;1.85;;;;;;;10.75;85.13;98600.50;4999254;28;20487;-59
2023/01/12 08:58:48;;;;;;;2.53;1.75;;;;;;;10.77;84.11;98596.97;5005775;28;20137;-60
2023/01/12 09:01:16;;;;;;;5.22;2.45;;;;;;;10.80;84.96;98596.03;4993281;28;20046;-59
2023/01/12 09:03:43;;;;;;;5.82;1.33;;;;;;;10.79;84.96;98600.38;4997715;28;20562;-59
2023/01/12 09:08:46;;;;;;;11.75;4.45;;;;;;;10.83;84.73;98605.44;5055746;27;20427;-59
2023/01/12 09:11:14;;;;;;;2.72;1.75;;;;;;;10.85;84.14;98598.50;5019104;28;20445;-58
2023/01/12 09:13:41;;;;;;;2.47;1.33;;;;;;;10.86;84.15;98600.19;5009714;28;20079;-58
2023/01/12 09:16:11;;;;;;;5.90;1.42;;;;;;;10.88;84.04;98609.63;5013134;28;20050;-59
2023/01/12 09:18:40;;;;;;;9.93;3.15;;;;;;;10.89;84.23;98600.97;5016238;28;20500;-59
2023/01/12 09:21:10;;;;;;;6.38;1.80;;;;;;;10.90;84.36;98601.81;5016659;28;20712;-59
2023/01/12 09:23:38;;;;;;;9.52;2.95;;;;;;;10.90;84.62;98596.63;5031993;28;20123;-59
2023/01/12 09:26:11;;;;;;;14.50;3.70;;;;;;;10.90;83.88;98606.97;5040796;28;20099;-58
2023/01/12 09:28:38;;;;;;;7.43;1.73;;;;;;;10.92;84.76;98594.84;5039567;28;20148;-58
2023/01/12 09:31:07;;;;;;;4.15;1.33;;;;;;;10.92;84.43;98600.88;5037750;28;20045;-58
2023/01/12 09:33:36;;;;;;;5.95;2.00;;;;;;;10.93;83.92;98601.72;5032146;28;20068;-59
2023/01/12 09:36:05;;;;;;;10.18;2.50;;;;;;;10.95;84.19;98593.91;5035587;28;20045;-59
2023/01/12 09:38:37;;;;;;;4.78;1.45;;;;;;;10.96;84.23;98595.59;5033651;28;20053;-58
2023/01/12 09:46:57;;;;;;;8.80;2.30;;;;;;;11.01;83.78;98589.41;5012046;27;20406;-59
2023/01/12 09:49:30;;;;;;;5.35;2.28;;;;;;;11.02;84.54;98575.56;5023893;28;20050;-58
2023/01/12 09:54:34;;;;;;;5.78;1.88;;;;;;;11.10;83.78;98574.50;5031976;28;20925;-59
2023/01/12 10:00:16;;;;;;;3.45;0.55;;;;;;;11.11;83.93;98573.63;5009209;28;20804;-59
2023/01/12 10:02:50;;;;;;;1.65;0.32;;;;;;;11.14;84.82;98565.72;5002676;28;20076;-59
2023/01/12 10:05:41;;;;;;;1.80;0.40;;;;;;;11.10;84.19;98572.75;5002347;28;20151;-58
2023/01/12 10:08:48;;;;;;;2.10;0.40;;;;;;;11.12;83.39;98575.31;5009795;28;20053;-59
2023/01/12 10:11:24;;;;;;;4.15;1.95;;;;;;;11.17;83.52;98569.09;5001839;28;20086;-59
2023/01/12 10:14:18;;;;;;;3.03;0.60;;;;;;;11.10;84.45;98580.53;4997770;28;20052;-58
2023/01/12 10:17:02;;;;;;;3.92;0.98;;;;;;;11.19;83.68;98582.03;4997752;28;20046;-59
2023/01/12 10:19:48;;;;;;;;;;;;;;;11.10;83.58;98571.91;4994903;28;20049;-58
2023/01/12 10:22:40;;;;;;;1.92;0.40;;;;;;;11.15;83.77;98581.25;5026427;28;19940;-59
2023/01/12 10:27:52;;;;;;;2.97;0.45;;;;;;;11.23;83.21;98568.06;5044022;27;20394;-59
2023/01/12 10:30:39;;;;;;;1.67;0.93;;;;;;;11.23;84.46;98568.06;5014040;28;20144;-59
2023/01/12 10:33:19;;;;;;;0.60;0.40;;;;;;;11.29;83.38;98567.88;5015474;28;20472;-56
2023/01/12 10:38:58;;;;;;;1.85;1.70;;;;;;;11.30;83.22;98567.00;4998835;27;20418;-60
2023/01/12 10:41:27;;;;;;;2.22;1.73;;;;;;;11.38;83.17;98568.53;4988289;28;20057;-58
2023/01/12 10:46:32;;;;;;;0.88;0.43;;;;;;;11.44;84.15;98555.34;5024651;28;20416;-60
2023/01/12 10:52:01;;;;;;;0.77;0.63;;;;;;;11.45;82.68;98567.41;5062629;27;20765;-59
2023/01/12 10:54:31;;;;;;;2.13;0.65;;;;;;;11.51;83.40;98550.81;5045827;28;20124;-59
2023/01/12 10:59:37;;;;;;;1.02;0.22;;;;;;;11.54;83.29;98556.78;5079465;27;20413;-59
2023/01/12 11:07:24;;;;;;;1.60;1.50;;;;;;;11.61;82.41;98528.91;5039806;27;20409;-60
2023/01/12 11:09:53;;;;;;;1.75;1.65;;;;;;;11.66;82.34;98521.00;5001975;28;20157;-59
2023/01/12 11:15:16;;;;;;;0.47;0.47;;;;;;;11.70;82.04;98518.25;5066057;27;21055;-59
2023/01/12 11:18:01;;;;;;;1.70;0.88;;;;;;;11.74;82.57;98508.63;5015841;28;20378;-60
2023/01/12 11:26:18;;;;;;;1.25;1.15;;;;;;;11.80;82.49;98499.78;5042267;27;20400;-60
2023/01/12 11:28:51;;;;;;;1.88;1.77;;;;;;;11.81;81.75;98486.78;5035184;28;20050;-60
2023/01/12 11:31:34;;;;;;;1.95;1.70;;;;;;;11.85;82.74;98497.88;5052138;28;20125;-60
2023/01/12 11:34:09;;;;;;;3.20;1.70;;;;;;;11.89;82.25;98477.91;5060048;28;20044;-60
2023/01/12 11:36:41;;;;;;;1.88;0.32;;;;;;;11.90;82.61;98484.78;5057121;28;20601;-58
2023/01/12 11:39:16;;;;;;;2.55;2.13;;;;;;;11.92;81.71;98488.19;5052597;28;20045;-58
2023/01/12 11:44:47;;;;;;;1.83;1.55;;;;;;;11.92;82.23;98472.63;5030203;28;20045;-58
2023/01/12 11:47:19;;;;;;;1.58;1.48;;;;;;;11.94;80.88;98481.19;5053818;28;20037;-59
2023/01/12 11:52:29;;;;;;;1.27;0.20;;;;;;;11.91;81.98;98463.09;5022527;27;20931;-59
2023/01/12 11:54:55;;;;;;;0.55;0.38;;;;;;;11.90;82.24;98456.22;4998970;28;20049;-59
2023/01/12 12:00:30;;;;;;;0.98;0.88;;;;;;;12.07;81.39;98466.06;5121172;27;20400;-60
2023/01/12 12:03:25;;;;;;;1.27;0.38;;;;;;;11.92;81.08;98468.25;5095282;28;20123;-60
2023/01/12 12:17:13;;;;;;;2.95;2.08;;;;;;;11.93;81.46;98448.34;5024982;27;20407;-60
2023/01/12 12:23:12;;;;;;;2.42;1.15;;;;;;;12.18;80.50;98437.13;5031621;27;20778;-60
2023/01/12 12:26:08;;;;;;;2.63;0.98;;;;;;;12.07;80.20;98430.59;4992447;28;20054;-60
2023/01/12 12:29:10;;;;;;;1.52;0.98;;;;;;;12.05;80.83;98416.78;5001807;28;20046;-60
2023/01/12 12:34:42;;;;;;;2.75;0.77;;;;;;;12.05;80.47;98401.22;5035969;28;20412;-60
2023/01/12 12:48:30;;;;;;;2.08;1.13;;;;;;;12.05;80.16;98396.03;5052856;28;20414;-59
2023/01/12 12:51:08;;;;;;;2.78;0.65;;;;;;;12.02;80.28;98372.78;5002649;28;20042;-60
2023/01/12 12:53:40;;;;;;;8.65;2.65;;;;;;;12.08;80.67;98382.97;5007420;28;20070;-63
2023/01/12 12:56:10;;;;;;;7.50;2.10;;;;;;;12.07;78.99;98381.28;5001267;28;20038;-63
2023/01/12 13:04:07;;;;;;;5.18;1.08;;;;;;;12.03;79.34;98371.88;5046413;27;20413;-62
2023/01/12 13:14:30;;;;;;;5.15;0.70;;;;;;;12.01;79.29;98370.22;5085770;27;23667;-63
2023/01/12 13:19:40;;;;;;;5.50;2.78;;;;;;;11.99;79.07;98348.69;5019463;28;20412;-62
2023/01/12 13:44:20;;;;;;;5.10;1.20;;;;;;;11.98;78.22;98337.47;5010153;28;20063;-63
2023/01/12 13:46:51;;;;;;;12.25;2.70;;;;;;;11.97;77.41;98343.56;4999154;28;20043;-62
2023/01/12 13:49:26;;;;;;;15.52;3.60;;;;;;;11.96;78.05;98354.84;4995020;28;20038;-61
2023/01/12 13:51:59;;;;;;;16.05;4.65;;;;;;;11.94;77.92;98354.91;4997549;28;20435;-62
2023/01/12 13:54:28;;;;;;;13.98;3.08;;;;;;;11.91;78.68;98356.75;4993919;28;20136;-61
2023/01/12 13:57:00;;;;;;;4.07;1.08;;;;;;;11.82;78.82;98348.38;5002946;28;20513;-59
2023/01/12 13:59:28;;;;;;;12.40;2.35;;;;;;;11.80;79.40;98365.78;4999177;28;20039;-60
2023/01/12 14:01:56;;;;;;;8.10;2.03;;;;;;;11.77;79.38;98360.69;4993557;28;20786;-61
2023/01/12 14:07:26;;;;;;;9.57;5.15;;;;;;;11.68;78.76;98355.78;5035331;28;20395;-63
2023/01/12 14:10:21;;;;;;;8.10;3.90;;;;;;;11.73;78.25;98351.31;5000201;28;20046;-60
2023/01/12 14:18:05;;;;;;;8.70;2.45;;;;;;;12.00;76.95;98335.69;5040872;28;20405;-61
2023/01/12 14:20:41;;;;;;;8.05;3.60;;;;;;;11.81;77.25;98331.13;5039186;28;20057;-63
2023/01/12 14:28:42;;;;;;;10.32;2.75;;;;;;;11.74;77.18;98350.41;5040505;27;20749;-62
2023/01/12 14:34:06;;;;;;;12.02;3.10;;;;;;;11.69;77.15;98352.31;5060704;27;20407;-62
2023/01/12 14:36:36;;;;;;;11.50;2.10;;;;;;;11.67;77.74;98339.41;5037824;28;20128;-61
2023/01/12 14:39:08;;;;;;;10.85;2.08;;;;;;;11.64;77.42;98326.53;5038736;28;20045;-62
2023/01/12 14:47:24;;;;;;;6.13;1.73;;;;;;;11.55;77.75;98329.47;5018007;28;20134;-64
2023/01/12 14:49:51;;;;;;;8.00;1.55;;;;;;;11.55;78.45;98338.06;5026593;28;20076;-60
2023/01/12 14:52:30;;;;;;;6.95;2.05;;;;;;;11.49;78.14;98335.72;5020101;28;20616;-60
2023/01/12 14:57:53;;;;;;;9.80;1.80;;;;;;;11.46;78.55;98350.50;5045502;28;20391;-61
2023/01/12 15:00:23;;;;;;;8.10;2.30;;;;;;;11.41;78.55;98350.66;5004251;28;20066;-60
2023/01/12 15:02:53;;;;;;;10.93;4.07;;;;;;;11.42;79.37;98345.41;5009264;28;20045;-62
2023/01/12 15:05:25;;;;;;;40.67;13.82;;;;;;;11.42;78.69;98349.78;5019947;28;20048;-58
2023/01/12 15:10:33;;;;;;;25.42;6.88;;;;;;;11.31;77.85;98363.94;5047716;27;20386;-62
2023/01/12 15:26:54;;;;;;;12.18;3.58;;;;;;;10.95;75.30;98377.19;5100285;27;20369;-62
2023/01/12 15:29:33;;;;;;;11.43;3.38;;;;;;;10.87;75.69;98389.50;5099080;28;20058;-59